sensor_id;sensor_type;location;lat;lon;timestamp;P1;P2;P0
64631;PMS5003;58358;50.936;0.246;2022-10-18T00:01:11;11;9;
64631;PMS5003;58358;50.936;0.246;2022-10-18T00:03:37;11;10;
64631;PMS5003;58358;50.936;0.246;2022-10-18T00:06:02;9;9;
64631;PMS5003;58358;50.936;0.246;2022-10-18T00:08:28;6;6;
64631;PMS5003;58358;50.936;0.246;2022-10-18T00:10:54;7;6;
64631;PMS5003;58358;50.936;0.246;2022-10-18T00:13:20;9;8;
64631;PMS5003;58358;50.936;0.246;2022-10-18T00:15:47;6;6;
64631;PMS5003;58358;50.936;0.246;2022-10-18T00:18:11;10;7;
64631;PMS5003;58358;50.936;0.246;2022-10-18T00:20:37;7;6;
64631;PMS5003;58358;50.936;0.246;2022-10-18T00:23:02;5;5;
64631;PMS5003;58358;50.936;0.246;2022-10-18T00:25:28;8;7;
64631;PMS5003;58358;50.936;0.246;2022-10-18T00:27:54;5;5;
64631;PMS5003;58358;50.936;0.246;2022-10-18T00:30:19;5;5;
64631;PMS5003;58358;50.936;0.246;2022-10-18T00:32:45;5;5;
64631;PMS5003;58358;50.936;0.246;2022-10-18T00:35:11;7;7;
64631;PMS5003;58358;50.936;0.246;2022-10-18T00:37:37;4;4;
64631;PMS5003;58358;50.936;0.246;2022-10-18T00:40:03;4;4;
64631;PMS5003;58358;50.936;0.246;2022-10-18T00:42:29;6;6;
64631;PMS5003;58358;50.936;0.246;2022-10-18T00:45:01;5;5;
64631;PMS5003;58358;50.936;0.246;2022-10-18T00:47:20;9;6;
64631;PMS5003;58358;50.936;0.246;2022-10-18T00:49:47;4;4;
64631;PMS5003;58358;50.936;0.246;2022-10-18T00:52:12;4;4;
64631;PMS5003;58358;50.936;0.246;2022-10-18T00:54:38;5;5;
64631;PMS5003;58358;50.936;0.246;2022-10-18T00:57:03;5;4;
64631;PMS5003;58358;50.936;0.246;2022-10-18T00:59:29;4;4;
64631;PMS5003;58358;50.936;0.246;2022-10-18T01:01:54;4;4;
64631;PMS5003;58358;50.936;0.246;2022-10-18T01:04:20;4;3;
64631;PMS5003;58358;50.936;0.246;2022-10-18T01:06:48;5;5;
64631;PMS5003;58358;50.936;0.246;2022-10-18T01:09:12;6;4;
64631;PMS5003;58358;50.936;0.246;2022-10-18T01:11:44;4;4;
64631;PMS5003;58358;50.936;0.246;2022-10-18T01:14:06;2;2;
64631;PMS5003;58358;50.936;0.246;2022-10-18T01:16:31;4;2;
64631;PMS5003;58358;50.936;0.246;2022-10-18T01:18:56;7;6;
64631;PMS5003;58358;50.936;0.246;2022-10-18T01:21:25;5;5;
64631;PMS5003;58358;50.936;0.246;2022-10-18T01:26:16;4;4;
64631;PMS5003;58358;50.936;0.246;2022-10-18T01:28:41;4;4;
64631;PMS5003;58358;50.936;0.246;2022-10-18T01:31:02;2;2;
64631;PMS5003;58358;50.936;0.246;2022-10-18T01:33:31;1;1;
64631;PMS5003;58358;50.936;0.246;2022-10-18T01:35:56;5;2;
64631;PMS5003;58358;50.936;0.246;2022-10-18T01:38:19;1;1;
64631;PMS5003;58358;50.936;0.246;2022-10-18T01:40:46;3;2;
64631;PMS5003;58358;50.936;0.246;2022-10-18T01:43:11;2;2;
64631;PMS5003;58358;50.936;0.246;2022-10-18T01:45:36;5;3;
64631;PMS5003;58358;50.936;0.246;2022-10-18T01:48:03;1;1;
64631;PMS5003;58358;50.936;0.246;2022-10-18T01:50:28;3;3;
64631;PMS5003;58358;50.936;0.246;2022-10-18T01:52:54;2;1;
64631;PMS5003;58358;50.936;0.246;2022-10-18T01:55:19;3;2;
64631;PMS5003;58358;50.936;0.246;2022-10-18T01:57:47;2;2;
64631;PMS5003;58358;50.936;0.246;2022-10-18T02:00:11;2;2;
64631;PMS5003;58358;50.936;0.246;2022-10-18T02:02:39;2;2;
64631;PMS5003;58358;50.936;0.246;2022-10-18T02:05:05;2;2;
64631;PMS5003;58358;50.936;0.246;2022-10-18T02:07:31;2;2;
64631;PMS5003;58358;50.936;0.246;2022-10-18T02:09:57;2;1;
64631;PMS5003;58358;50.936;0.246;2022-10-18T02:12:20;2;2;
64631;PMS5003;58358;50.936;0.246;2022-10-18T02:14:46;2;2;
64631;PMS5003;58358;50.936;0.246;2022-10-18T02:17:11;2;2;
64631;PMS5003;58358;50.936;0.246;2022-10-18T02:19:38;4;4;
64631;PMS5003;58358;50.936;0.246;2022-10-18T02:22:03;0;0;
64631;PMS5003;58358;50.936;0.246;2022-10-18T02:24:30;2;0;
64631;PMS5003;58358;50.936;0.246;2022-10-18T02:26:55;3;2;
64631;PMS5003;58358;50.936;0.246;2022-10-18T02:29:20;1;1;
64631;PMS5003;58358;50.936;0.246;2022-10-18T02:31:47;1;1;
64631;PMS5003;58358;50.936;0.246;2022-10-18T02:34:16;2;2;
64631;PMS5003;58358;50.936;0.246;2022-10-18T02:36:39;0;0;
64631;PMS5003;58358;50.936;0.246;2022-10-18T02:39:13;1;1;
64631;PMS5003;58358;50.936;0.246;2022-10-18T02:41:29;0;0;
64631;PMS5003;58358;50.936;0.246;2022-10-18T02:43:55;3;2;
64631;PMS5003;58358;50.936;0.246;2022-10-18T02:46:21;1;1;
64631;PMS5003;58358;50.936;0.246;2022-10-18T02:48:47;1;1;
64631;PMS5003;58358;50.936;0.246;2022-10-18T02:51:12;2;1;
64631;PMS5003;58358;50.936;0.246;2022-10-18T02:53:38;1;0;
64631;PMS5003;58358;50.936;0.246;2022-10-18T02:56:04;2;1;
64631;PMS5003;58358;50.936;0.246;2022-10-18T02:58:30;0;0;
64631;PMS5003;58358;50.936;0.246;2022-10-18T03:00:55;3;1;
64631;PMS5003;58358;50.936;0.246;2022-10-18T03:03:21;0;0;
64631;PMS5003;58358;50.936;0.246;2022-10-18T03:05:47;1;1;
64631;PMS5003;58358;50.936;0.246;2022-10-18T03:08:13;1;1;
64631;PMS5003;58358;50.936;0.246;2022-10-18T03:10:39;1;1;
64631;PMS5003;58358;50.936;0.246;2022-10-18T03:13:05;3;2;
64631;PMS5003;58358;50.936;0.246;2022-10-18T03:15:30;4;2;
64631;PMS5003;58358;50.936;0.246;2022-10-18T03:17:57;1;1;
64631;PMS5003;58358;50.936;0.246;2022-10-18T03:20:23;1;1;
64631;PMS5003;58358;50.936;0.246;2022-10-18T03:22:48;3;2;
64631;PMS5003;58358;50.936;0.246;2022-10-18T03:25:13;0;0;
64631;PMS5003;58358;50.936;0.246;2022-10-18T03:27:41;2;2;
64631;PMS5003;58358;50.936;0.246;2022-10-18T03:30:05;2;2;
64631;PMS5003;58358;50.936;0.246;2022-10-18T03:32:31;2;2;
64631;PMS5003;58358;50.936;0.246;2022-10-18T03:34:57;1;1;
64631;PMS5003;58358;50.936;0.246;2022-10-18T03:37:22;1;1;
64631;PMS5003;58358;50.936;0.246;2022-10-18T03:39:48;2;1;
64631;PMS5003;58358;50.936;0.246;2022-10-18T03:42:14;0;0;
64631;PMS5003;58358;50.936;0.246;2022-10-18T03:44:40;1;1;
64631;PMS5003;58358;50.936;0.246;2022-10-18T03:47:07;1;1;
64631;PMS5003;58358;50.936;0.246;2022-10-18T03:49:31;4;2;
64631;PMS5003;58358;50.936;0.246;2022-10-18T03:51:57;2;2;
64631;PMS5003;58358;50.936;0.246;2022-10-18T03:54:23;3;1;
64631;PMS5003;58358;50.936;0.246;2022-10-18T03:56:49;1;1;
64631;PMS5003;58358;50.936;0.246;2022-10-18T03:59:15;1;1;
64631;PMS5003;58358;50.936;0.246;2022-10-18T04:01:40;1;1;
64631;PMS5003;58358;50.936;0.246;2022-10-18T04:04:06;3;1;
64631;PMS5003;58358;50.936;0.246;2022-10-18T04:06:32;1;1;
64631;PMS5003;58358;50.936;0.246;2022-10-18T04:08:58;1;1;
64631;PMS5003;58358;50.936;0.246;2022-10-18T04:11:24;0;0;
64631;PMS5003;58358;50.936;0.246;2022-10-18T04:13:51;4;2;
64631;PMS5003;58358;50.936;0.246;2022-10-18T04:16:17;1;1;
64631;PMS5003;58358;50.936;0.246;2022-10-18T04:18:41;1;1;
64631;PMS5003;58358;50.936;0.246;2022-10-18T04:21:07;1;1;
64631;PMS5003;58358;50.936;0.246;2022-10-18T04:23:33;1;1;
64631;PMS5003;58358;50.936;0.246;2022-10-18T04:25:58;2;2;
64631;PMS5003;58358;50.936;0.246;2022-10-18T04:28:24;1;0;
64631;PMS5003;58358;50.936;0.246;2022-10-18T04:30:50;1;1;
64631;PMS5003;58358;50.936;0.246;2022-10-18T04:33:17;1;1;
64631;PMS5003;58358;50.936;0.246;2022-10-18T04:35:42;8;8;
64631;PMS5003;58358;50.936;0.246;2022-10-18T04:38:07;1;1;
64631;PMS5003;58358;50.936;0.246;2022-10-18T04:40:33;3;3;
64631;PMS5003;58358;50.936;0.246;2022-10-18T04:42:59;2;2;
64631;PMS5003;58358;50.936;0.246;2022-10-18T04:45:25;3;3;
64631;PMS5003;58358;50.936;0.246;2022-10-18T04:47:51;1;1;
64631;PMS5003;58358;50.936;0.246;2022-10-18T04:50:17;1;1;
64631;PMS5003;58358;50.936;0.246;2022-10-18T04:52:43;2;2;
64631;PMS5003;58358;50.936;0.246;2022-10-18T04:55:10;2;2;
64631;PMS5003;58358;50.936;0.246;2022-10-18T04:57:34;3;3;
64631;PMS5003;58358;50.936;0.246;2022-10-18T05:00:00;2;2;
64631;PMS5003;58358;50.936;0.246;2022-10-18T05:02:26;1;1;
64631;PMS5003;58358;50.936;0.246;2022-10-18T05:04:51;2;1;
64631;PMS5003;58358;50.936;0.246;2022-10-18T05:07:17;1;1;
64631;PMS5003;58358;50.936;0.246;2022-10-18T05:09:43;3;2;
64631;PMS5003;58358;50.936;0.246;2022-10-18T05:12:09;1;1;
64631;PMS5003;58358;50.936;0.246;2022-10-18T05:14:35;2;1;
64631;PMS5003;58358;50.936;0.246;2022-10-18T05:17:00;2;2;
64631;PMS5003;58358;50.936;0.246;2022-10-18T05:19:26;1;1;
64631;PMS5003;58358;50.936;0.246;2022-10-18T05:21:53;1;1;
64631;PMS5003;58358;50.936;0.246;2022-10-18T05:24:18;1;1;
64631;PMS5003;58358;50.936;0.246;2022-10-18T05:26:46;37;36;
64631;PMS5003;58358;50.936;0.246;2022-10-18T05:29:09;9;9;
64631;PMS5003;58358;50.936;0.246;2022-10-18T05:31:35;7;6;
64631;PMS5003;58358;50.936;0.246;2022-10-18T05:34:01;3;3;
64631;PMS5003;58358;50.936;0.246;2022-10-18T05:36:26;4;3;
64631;PMS5003;58358;50.936;0.246;2022-10-18T05:38:52;2;2;
64631;PMS5003;58358;50.936;0.246;2022-10-18T05:41:18;1;1;
64631;PMS5003;58358;50.936;0.246;2022-10-18T05:43:45;1;1;
64631;PMS5003;58358;50.936;0.246;2022-10-18T05:46:10;1;1;
64631;PMS5003;58358;50.936;0.246;2022-10-18T05:48:35;1;1;
64631;PMS5003;58358;50.936;0.246;2022-10-18T05:51:01;3;3;
64631;PMS5003;58358;50.936;0.246;2022-10-18T05:53:26;16;14;
64631;PMS5003;58358;50.936;0.246;2022-10-18T05:55:52;6;6;
64631;PMS5003;58358;50.936;0.246;2022-10-18T05:58:17;5;5;
64631;PMS5003;58358;50.936;0.246;2022-10-18T06:00:43;7;7;
64631;PMS5003;58358;50.936;0.246;2022-10-18T06:03:08;5;5;
64631;PMS5003;58358;50.936;0.246;2022-10-18T06:05:34;6;6;
64631;PMS5003;58358;50.936;0.246;2022-10-18T06:07:59;3;2;
64631;PMS5003;58358;50.936;0.246;2022-10-18T06:10:24;7;6;
64631;PMS5003;58358;50.936;0.246;2022-10-18T06:12:49;6;6;
64631;PMS5003;58358;50.936;0.246;2022-10-18T06:15:17;4;4;
64631;PMS5003;58358;50.936;0.246;2022-10-18T06:17:41;3;2;
64631;PMS5003;58358;50.936;0.246;2022-10-18T06:20:06;8;8;
64631;PMS5003;58358;50.936;0.246;2022-10-18T06:22:32;8;8;
64631;PMS5003;58358;50.936;0.246;2022-10-18T06:24:57;11;9;
64631;PMS5003;58358;50.936;0.246;2022-10-18T06:27:24;4;4;
64631;PMS5003;58358;50.936;0.246;2022-10-18T06:29:49;4;4;
64631;PMS5003;58358;50.936;0.246;2022-10-18T06:32:15;3;3;
64631;PMS5003;58358;50.936;0.246;2022-10-18T06:34:40;7;5;
64631;PMS5003;58358;50.936;0.246;2022-10-18T06:37:06;4;4;
64631;PMS5003;58358;50.936;0.246;2022-10-18T06:39:32;16;15;
64631;PMS5003;58358;50.936;0.246;2022-10-18T06:41:58;3;3;
64631;PMS5003;58358;50.936;0.246;2022-10-18T06:44:24;10;10;
64631;PMS5003;58358;50.936;0.246;2022-10-18T06:46:49;11;11;
64631;PMS5003;58358;50.936;0.246;2022-10-18T06:49:15;15;11;
64631;PMS5003;58358;50.936;0.246;2022-10-18T06:51:41;20;20;
64631;PMS5003;58358;50.936;0.246;2022-10-18T06:54:06;11;10;
64631;PMS5003;58358;50.936;0.246;2022-10-18T06:56:31;7;7;
64631;PMS5003;58358;50.936;0.246;2022-10-18T06:58:57;4;4;
64631;PMS5003;58358;50.936;0.246;2022-10-18T07:01:23;2;2;
64631;PMS5003;58358;50.936;0.246;2022-10-18T07:03:51;3;3;
64631;PMS5003;58358;50.936;0.246;2022-10-18T07:06:15;1;1;
64631;PMS5003;58358;50.936;0.246;2022-10-18T07:08:40;7;7;
64631;PMS5003;58358;50.936;0.246;2022-10-18T07:11:07;6;6;
64631;PMS5003;58358;50.936;0.246;2022-10-18T07:13:32;10;10;
64631;PMS5003;58358;50.936;0.246;2022-10-18T07:16:00;9;9;
64631;PMS5003;58358;50.936;0.246;2022-10-18T07:18:23;7;7;
64631;PMS5003;58358;50.936;0.246;2022-10-18T07:20:48;26;26;
64631;PMS5003;58358;50.936;0.246;2022-10-18T07:23:15;15;15;
64631;PMS5003;58358;50.936;0.246;2022-10-18T07:25:40;9;8;
64631;PMS5003;58358;50.936;0.246;2022-10-18T07:28:06;6;3;
64631;PMS5003;58358;50.936;0.246;2022-10-18T07:30:32;9;8;
64631;PMS5003;58358;50.936;0.246;2022-10-18T07:32:57;17;13;
64631;PMS5003;58358;50.936;0.246;2022-10-18T07:35:23;11;11;
64631;PMS5003;58358;50.936;0.246;2022-10-18T07:37:49;6;6;
64631;PMS5003;58358;50.936;0.246;2022-10-18T07:40:14;9;9;
64631;PMS5003;58358;50.936;0.246;2022-10-18T07:42:40;14;11;
64631;PMS5003;58358;50.936;0.246;2022-10-18T07:45:05;7;7;
64631;PMS5003;58358;50.936;0.246;2022-10-18T07:47:30;10;7;
64631;PMS5003;58358;50.936;0.246;2022-10-18T07:49:56;6;6;
64631;PMS5003;58358;50.936;0.246;2022-10-18T07:52:22;11;11;
64631;PMS5003;58358;50.936;0.246;2022-10-18T07:54:48;11;9;
64631;PMS5003;58358;50.936;0.246;2022-10-18T07:57:13;33;27;
64631;PMS5003;58358;50.936;0.246;2022-10-18T07:59:39;24;22;
64631;PMS5003;58358;50.936;0.246;2022-10-18T08:02:04;24;24;
64631;PMS5003;58358;50.936;0.246;2022-10-18T08:04:30;40;37;
64631;PMS5003;58358;50.936;0.246;2022-10-18T08:06:55;49;45;
64631;PMS5003;58358;50.936;0.246;2022-10-18T08:09:20;34;31;
64631;PMS5003;58358;50.936;0.246;2022-10-18T08:11:46;31;28;
64631;PMS5003;58358;50.936;0.246;2022-10-18T08:14:11;55;51;
64631;PMS5003;58358;50.936;0.246;2022-10-18T08:16:37;66;62;
64631;PMS5003;58358;50.936;0.246;2022-10-18T08:19:03;81;75;
64631;PMS5003;58358;50.936;0.246;2022-10-18T08:21:29;69;66;
64631;PMS5003;58358;50.936;0.246;2022-10-18T08:23:54;99;91;
64631;PMS5003;58358;50.936;0.246;2022-10-18T08:26:20;52;49;
64631;PMS5003;58358;50.936;0.246;2022-10-18T08:28:45;52;49;
64631;PMS5003;58358;50.936;0.246;2022-10-18T08:31:10;18;16;
64631;PMS5003;58358;50.936;0.246;2022-10-18T08:33:35;13;13;
64631;PMS5003;58358;50.936;0.246;2022-10-18T08:36:02;13;11;
64631;PMS5003;58358;50.936;0.246;2022-10-18T08:38:28;11;10;
64631;PMS5003;58358;50.936;0.246;2022-10-18T08:40:52;9;8;
64631;PMS5003;58358;50.936;0.246;2022-10-18T08:43:23;23;19;
64631;PMS5003;58358;50.936;0.246;2022-10-18T08:45:43;20;17;
64631;PMS5003;58358;50.936;0.246;2022-10-18T08:48:15;8;6;
64631;PMS5003;58358;50.936;0.246;2022-10-18T08:50:35;13;12;
64631;PMS5003;58358;50.936;0.246;2022-10-18T08:53:02;6;6;
64631;PMS5003;58358;50.936;0.246;2022-10-18T08:55:27;3;3;
64631;PMS5003;58358;50.936;0.246;2022-10-18T08:57:53;5;5;
64631;PMS5003;58358;50.936;0.246;2022-10-18T09:00:18;5;3;
64631;PMS5003;58358;50.936;0.246;2022-10-18T09:02:51;6;6;
64631;PMS5003;58358;50.936;0.246;2022-10-18T09:05:15;7;5;
64631;PMS5003;58358;50.936;0.246;2022-10-18T09:07:39;4;4;
64631;PMS5003;58358;50.936;0.246;2022-10-18T09:10:01;5;5;
64631;PMS5003;58358;50.936;0.246;2022-10-18T09:12:29;4;3;
64631;PMS5003;58358;50.936;0.246;2022-10-18T09:17:20;12;10;
64631;PMS5003;58358;50.936;0.246;2022-10-18T09:19:45;21;20;
64631;PMS5003;58358;50.936;0.246;2022-10-18T09:22:10;8;7;
64631;PMS5003;58358;50.936;0.246;2022-10-18T09:24:35;6;5;
64631;PMS5003;58358;50.936;0.246;2022-10-18T09:27:00;7;4;
64631;PMS5003;58358;50.936;0.246;2022-10-18T09:29:32;9;7;
64631;PMS5003;58358;50.936;0.246;2022-10-18T09:31:55;9;8;
64631;PMS5003;58358;50.936;0.246;2022-10-18T09:36:42;8;6;
64631;PMS5003;58358;50.936;0.246;2022-10-18T09:39:09;2;2;
64631;PMS5003;58358;50.936;0.246;2022-10-18T09:41:34;5;4;
64631;PMS5003;58358;50.936;0.246;2022-10-18T09:43:59;4;4;
64631;PMS5003;58358;50.936;0.246;2022-10-18T09:46:25;1;1;
64631;PMS5003;58358;50.936;0.246;2022-10-18T09:48:50;5;3;
64631;PMS5003;58358;50.936;0.246;2022-10-18T09:51:16;3;3;
64631;PMS5003;58358;50.936;0.246;2022-10-18T09:53:41;5;5;
64631;PMS5003;58358;50.936;0.246;2022-10-18T09:56:08;6;4;
64631;PMS5003;58358;50.936;0.246;2022-10-18T09:58:37;5;5;
64631;PMS5003;58358;50.936;0.246;2022-10-18T10:00:58;12;12;
64631;PMS5003;58358;50.936;0.246;2022-10-18T10:03:24;7;7;
64631;PMS5003;58358;50.936;0.246;2022-10-18T10:08:15;8;8;
64631;PMS5003;58358;50.936;0.246;2022-10-18T10:10:45;8;5;
64631;PMS5003;58358;50.936;0.246;2022-10-18T10:13:13;5;5;
64631;PMS5003;58358;50.936;0.246;2022-10-18T10:15:32;5;4;
64631;PMS5003;58358;50.936;0.246;2022-10-18T10:17:59;5;5;
64631;PMS5003;58358;50.936;0.246;2022-10-18T10:20:24;9;7;
64631;PMS5003;58358;50.936;0.246;2022-10-18T10:22:49;7;7;
64631;PMS5003;58358;50.936;0.246;2022-10-18T10:25:20;8;7;
64631;PMS5003;58358;50.936;0.246;2022-10-18T10:27:42;13;12;
64631;PMS5003;58358;50.936;0.246;2022-10-18T10:30:11;10;10;
64631;PMS5003;58358;50.936;0.246;2022-10-18T10:32:41;9;9;
64631;PMS5003;58358;50.936;0.246;2022-10-18T10:34:57;5;5;
64631;PMS5003;58358;50.936;0.246;2022-10-18T10:37:25;8;7;
64631;PMS5003;58358;50.936;0.246;2022-10-18T10:39:49;5;5;
64631;PMS5003;58358;50.936;0.246;2022-10-18T10:42:13;8;6;
64631;PMS5003;58358;50.936;0.246;2022-10-18T10:44:39;4;4;
64631;PMS5003;58358;50.936;0.246;2022-10-18T10:47:05;4;4;
64631;PMS5003;58358;50.936;0.246;2022-10-18T10:49:38;7;4;
64631;PMS5003;58358;50.936;0.246;2022-10-18T10:51:56;6;5;
64631;PMS5003;58358;50.936;0.246;2022-10-18T10:54:22;10;7;
64631;PMS5003;58358;50.936;0.246;2022-10-18T10:56:50;6;6;
64631;PMS5003;58358;50.936;0.246;2022-10-18T10:59:14;7;6;
64631;PMS5003;58358;50.936;0.246;2022-10-18T11:01:38;8;8;
64631;PMS5003;58358;50.936;0.246;2022-10-18T11:08:55;6;5;
64631;PMS5003;58358;50.936;0.246;2022-10-18T11:11:21;11;10;
64631;PMS5003;58358;50.936;0.246;2022-10-18T11:13:47;8;8;
64631;PMS5003;58358;50.936;0.246;2022-10-18T11:16:13;6;6;
64631;PMS5003;58358;50.936;0.246;2022-10-18T11:18:38;8;8;
64631;PMS5003;58358;50.936;0.246;2022-10-18T11:21:04;8;5;
64631;PMS5003;58358;50.936;0.246;2022-10-18T11:23:30;5;5;
64631;PMS5003;58358;50.936;0.246;2022-10-18T11:25:59;11;10;
64631;PMS5003;58358;50.936;0.246;2022-10-18T11:28:26;19;18;
64631;PMS5003;58358;50.936;0.246;2022-10-18T11:30:52;17;16;
64631;PMS5003;58358;50.936;0.246;2022-10-18T11:33:16;9;8;
64631;PMS5003;58358;50.936;0.246;2022-10-18T11:35:38;4;4;
64631;PMS5003;58358;50.936;0.246;2022-10-18T11:38:05;4;4;
64631;PMS5003;58358;50.936;0.246;2022-10-18T11:40:31;17;17;
64631;PMS5003;58358;50.936;0.246;2022-10-18T11:42:54;7;7;
64631;PMS5003;58358;50.936;0.246;2022-10-18T11:45:24;6;4;
64631;PMS5003;58358;50.936;0.246;2022-10-18T11:47:45;7;4;
64631;PMS5003;58358;50.936;0.246;2022-10-18T11:50:11;11;10;
64631;PMS5003;58358;50.936;0.246;2022-10-18T11:52:36;38;38;
64631;PMS5003;58358;50.936;0.246;2022-10-18T11:55:05;20;18;
64631;PMS5003;58358;50.936;0.246;2022-10-18T11:57:31;19;16;
64631;PMS5003;58358;50.936;0.246;2022-10-18T11:59:52;11;11;
64631;PMS5003;58358;50.936;0.246;2022-10-18T12:02:22;20;20;
64631;PMS5003;58358;50.936;0.246;2022-10-18T12:04:43;12;11;
64631;PMS5003;58358;50.936;0.246;2022-10-18T12:07:09;13;12;
64631;PMS5003;58358;50.936;0.246;2022-10-18T12:09:33;9;8;
64631;PMS5003;58358;50.936;0.246;2022-10-18T12:12:00;7;6;
64631;PMS5003;58358;50.936;0.246;2022-10-18T12:14:25;10;8;
64631;PMS5003;58358;50.936;0.246;2022-10-18T12:16:49;4;4;
64631;PMS5003;58358;50.936;0.246;2022-10-18T12:19:17;7;6;
64631;PMS5003;58358;50.936;0.246;2022-10-18T12:21:41;9;9;
64631;PMS5003;58358;50.936;0.246;2022-10-18T12:24:09;9;9;
64631;PMS5003;58358;50.936;0.246;2022-10-18T12:26:33;13;10;
64631;PMS5003;58358;50.936;0.246;2022-10-18T12:29:06;5;3;
64631;PMS5003;58358;50.936;0.246;2022-10-18T12:31:29;7;4;
64631;PMS5003;58358;50.936;0.246;2022-10-18T12:33:50;8;8;
64631;PMS5003;58358;50.936;0.246;2022-10-18T12:36:21;5;4;
64631;PMS5003;58358;50.936;0.246;2022-10-18T12:38:42;5;5;
64631;PMS5003;58358;50.936;0.246;2022-10-18T12:41:10;5;5;
64631;PMS5003;58358;50.936;0.246;2022-10-18T12:43:32;4;3;
64631;PMS5003;58358;50.936;0.246;2022-10-18T12:45:58;6;4;
64631;PMS5003;58358;50.936;0.246;2022-10-18T12:48:26;5;5;
64631;PMS5003;58358;50.936;0.246;2022-10-18T12:50:48;6;5;
64631;PMS5003;58358;50.936;0.246;2022-10-18T12:53:15;10;8;
64631;PMS5003;58358;50.936;0.246;2022-10-18T12:55:40;5;5;
64631;PMS5003;58358;50.936;0.246;2022-10-18T13:07:47;4;3;
64631;PMS5003;58358;50.936;0.246;2022-10-18T13:12:50;2;2;
64631;PMS5003;58358;50.936;0.246;2022-10-18T13:15:05;2;2;
64631;PMS5003;58358;50.936;0.246;2022-10-18T13:17:30;5;4;
64631;PMS5003;58358;50.936;0.246;2022-10-18T13:19:59;3;3;
64631;PMS5003;58358;50.936;0.246;2022-10-18T13:22:27;5;5;
64631;PMS5003;58358;50.936;0.246;2022-10-18T13:27:17;4;4;
64631;PMS5003;58358;50.936;0.246;2022-10-18T13:32:04;3;3;
64631;PMS5003;58358;50.936;0.246;2022-10-18T13:34:30;4;4;
64631;PMS5003;58358;50.936;0.246;2022-10-18T13:36:56;5;5;
64631;PMS5003;58358;50.936;0.246;2022-10-18T13:39:21;5;3;
64631;PMS5003;58358;50.936;0.246;2022-10-18T13:49:04;1;1;
64631;PMS5003;58358;50.936;0.246;2022-10-18T13:51:34;3;2;
64631;PMS5003;58358;50.936;0.246;2022-10-18T13:53:55;4;4;
64631;PMS5003;58358;50.936;0.246;2022-10-18T13:58:48;4;4;
64631;PMS5003;58358;50.936;0.246;2022-10-18T14:01:16;8;8;
64631;PMS5003;58358;50.936;0.246;2022-10-18T14:03:42;11;10;
64631;PMS5003;58358;50.936;0.246;2022-10-18T14:06:03;12;12;
64631;PMS5003;58358;50.936;0.246;2022-10-18T14:08:31;5;5;
64631;PMS5003;58358;50.936;0.246;2022-10-18T14:11:01;3;3;
64631;PMS5003;58358;50.936;0.246;2022-10-18T14:13:19;9;9;
64631;PMS5003;58358;50.936;0.246;2022-10-18T14:15:47;7;6;
64631;PMS5003;58358;50.936;0.246;2022-10-18T14:18:11;3;3;
64631;PMS5003;58358;50.936;0.246;2022-10-18T14:20:36;9;6;
64631;PMS5003;58358;50.936;0.246;2022-10-18T14:23:03;8;4;
64631;PMS5003;58358;50.936;0.246;2022-10-18T14:25:30;7;4;
64631;PMS5003;58358;50.936;0.246;2022-10-18T14:30:18;10;9;
64631;PMS5003;58358;50.936;0.246;2022-10-18T14:32:44;8;6;
64631;PMS5003;58358;50.936;0.246;2022-10-18T14:37:34;9;7;
64631;PMS5003;58358;50.936;0.246;2022-10-18T14:40:00;11;8;
64631;PMS5003;58358;50.936;0.246;2022-10-18T14:42:26;9;8;
64631;PMS5003;58358;50.936;0.246;2022-10-18T14:44:52;7;3;
64631;PMS5003;58358;50.936;0.246;2022-10-18T14:47:19;9;6;
64631;PMS5003;58358;50.936;0.246;2022-10-18T14:49:42;8;7;
64631;PMS5003;58358;50.936;0.246;2022-10-18T14:52:09;9;9;
64631;PMS5003;58358;50.936;0.246;2022-10-18T14:54:35;6;5;
64631;PMS5003;58358;50.936;0.246;2022-10-18T14:56:59;4;3;
64631;PMS5003;58358;50.936;0.246;2022-10-18T14:59:25;5;4;
64631;PMS5003;58358;50.936;0.246;2022-10-18T15:01:51;4;4;
64631;PMS5003;58358;50.936;0.246;2022-10-18T15:04:15;6;4;
64631;PMS5003;58358;50.936;0.246;2022-10-18T15:06:41;4;4;
64631;PMS5003;58358;50.936;0.246;2022-10-18T15:09:07;6;6;
64631;PMS5003;58358;50.936;0.246;2022-10-18T15:11:32;18;18;
64631;PMS5003;58358;50.936;0.246;2022-10-18T15:14:00;18;17;
64631;PMS5003;58358;50.936;0.246;2022-10-18T15:16:25;39;32;
64631;PMS5003;58358;50.936;0.246;2022-10-18T15:21:19;33;30;
64631;PMS5003;58358;50.936;0.246;2022-10-18T15:23:40;17;15;
64631;PMS5003;58358;50.936;0.246;2022-10-18T15:26:05;10;9;
64631;PMS5003;58358;50.936;0.246;2022-10-18T15:28:31;9;8;
64631;PMS5003;58358;50.936;0.246;2022-10-18T15:30:56;11;10;
64631;PMS5003;58358;50.936;0.246;2022-10-18T15:33:22;16;15;
64631;PMS5003;58358;50.936;0.246;2022-10-18T15:35:47;22;20;
64631;PMS5003;58358;50.936;0.246;2022-10-18T15:38:13;17;17;
64631;PMS5003;58358;50.936;0.246;2022-10-18T15:40:40;26;26;
64631;PMS5003;58358;50.936;0.246;2022-10-18T15:45:31;19;19;
64631;PMS5003;58358;50.936;0.246;2022-10-18T15:47:57;14;14;
64631;PMS5003;58358;50.936;0.246;2022-10-18T15:50:34;18;16;
64631;PMS5003;58358;50.936;0.246;2022-10-18T15:52:45;32;28;
64631;PMS5003;58358;50.936;0.246;2022-10-18T15:57:36;14;14;
64631;PMS5003;58358;50.936;0.246;2022-10-18T16:00:04;10;9;
64631;PMS5003;58358;50.936;0.246;2022-10-18T16:02:27;25;22;
64631;PMS5003;58358;50.936;0.246;2022-10-18T16:04:52;16;16;
64631;PMS5003;58358;50.936;0.246;2022-10-18T16:07:17;17;14;
64631;PMS5003;58358;50.936;0.246;2022-10-18T16:09:43;9;7;
64631;PMS5003;58358;50.936;0.246;2022-10-18T16:12:08;9;8;
64631;PMS5003;58358;50.936;0.246;2022-10-18T16:14:33;9;9;
64631;PMS5003;58358;50.936;0.246;2022-10-18T16:16:59;7;6;
64631;PMS5003;58358;50.936;0.246;2022-10-18T16:19:24;13;11;
64631;PMS5003;58358;50.936;0.246;2022-10-18T16:21:49;35;34;
64631;PMS5003;58358;50.936;0.246;2022-10-18T16:24:15;28;27;
64631;PMS5003;58358;50.936;0.246;2022-10-18T16:26:40;17;17;
64631;PMS5003;58358;50.936;0.246;2022-10-18T16:29:05;14;12;
64631;PMS5003;58358;50.936;0.246;2022-10-18T16:31:32;9;9;
64631;PMS5003;58358;50.936;0.246;2022-10-18T16:33:57;6;6;
64631;PMS5003;58358;50.936;0.246;2022-10-18T16:36:23;5;5;
64631;PMS5003;58358;50.936;0.246;2022-10-18T16:38:48;5;5;
64631;PMS5003;58358;50.936;0.246;2022-10-18T16:41:14;5;5;
64631;PMS5003;58358;50.936;0.246;2022-10-18T16:43:40;4;4;
64631;PMS5003;58358;50.936;0.246;2022-10-18T16:46:05;5;5;
64631;PMS5003;58358;50.936;0.246;2022-10-18T16:48:30;7;6;
64631;PMS5003;58358;50.936;0.246;2022-10-18T16:50:56;5;5;
64631;PMS5003;58358;50.936;0.246;2022-10-18T16:53:22;6;6;
64631;PMS5003;58358;50.936;0.246;2022-10-18T16:55:50;6;3;
64631;PMS5003;58358;50.936;0.246;2022-10-18T16:58:14;11;8;
64631;PMS5003;58358;50.936;0.246;2022-10-18T17:00:38;3;3;
64631;PMS5003;58358;50.936;0.246;2022-10-18T17:03:03;4;4;
64631;PMS5003;58358;50.936;0.246;2022-10-18T17:05:29;5;4;
64631;PMS5003;58358;50.936;0.246;2022-10-18T17:07:55;8;7;
64631;PMS5003;58358;50.936;0.246;2022-10-18T17:10:20;5;4;
64631;PMS5003;58358;50.936;0.246;2022-10-18T17:12:46;9;7;
64631;PMS5003;58358;50.936;0.246;2022-10-18T17:15:11;8;6;
64631;PMS5003;58358;50.936;0.246;2022-10-18T17:17:37;11;9;
64631;PMS5003;58358;50.936;0.246;2022-10-18T17:20:03;7;6;
64631;PMS5003;58358;50.936;0.246;2022-10-18T17:22:28;11;11;
64631;PMS5003;58358;50.936;0.246;2022-10-18T17:24:56;12;9;